Time;durP1;ratioP1;P1;durP2;ratioP2;P2;SDS_P1;SDS_P2;PMS_P1;PMS_P2;Temp;Humidity;BMP_temperature;BMP_pressure;BME280_temperature;BME280_humidity;BME280_pressure;Samples;Min_cycle;Max_cycle;Signal;HPM_P1;HPM_P2
2023/01/12 00:02:21;;;;;;;10.70;1.70;;;;;;;;;;5072932;28;20494;-82
2023/01/12 00:04:48;;;;;;;9.35;1.52;;;;;;;;;;5074176;28;20049;-80
2023/01/12 00:07:15;;;;;;;14.68;1.80;;;;;;;;;;5073444;28;20094;-81
2023/01/12 00:09:41;;;;;;;9.15;1.67;;;;;;;;;;5072888;28;20052;-79
2023/01/12 00:12:09;;;;;;;13.43;2.30;;;;;;;;;;5072591;28;20082;-79
2023/01/12 00:14:36;;;;;;;10.48;1.52;;;;;;;;;;5072412;28;20509;-81
2023/01/12 00:17:02;;;;;;;14.32;1.73;;;;;;;;;;5072722;28;20051;-81
2023/01/12 00:19:30;;;;;;;12.98;1.40;;;;;;;;;;5072127;28;20052;-80
2023/01/12 00:21:59;;;;;;;10.10;1.40;;;;;;;;;;5072933;28;20075;-81
2023/01/12 00:24:27;;;;;;;7.57;1.10;;;;;;;;;;5072586;28;20052;-80
2023/01/12 00:26:54;;;;;;;9.20;1.38;;;;;;;;;;5072661;28;20049;-80
2023/01/12 00:29:21;;;;;;;13.75;1.75;;;;;;;;;;5073445;28;20364;-81
2023/01/12 00:31:47;;;;;;;13.55;1.38;;;;;;;;;;5071841;28;20071;-80
2023/01/12 00:34:14;;;;;;;7.53;1.30;;;;;;;;;;5072093;28;20075;-81
2023/01/12 00:36:40;;;;;;;15.13;1.58;;;;;;;;;;5071816;28;20547;-81
2023/01/12 00:39:07;;;;;;;12.25;1.38;;;;;;;;;;5072951;28;20068;-81
2023/01/12 00:47:06;;;;;;;11.18;1.08;;;;;;;;;;5073100;28;20044;-81
2023/01/12 00:49:34;;;;;;;5.53;1.23;;;;;;;;;;5067509;28;20051;-81
2023/01/12 00:52:01;;;;;;;10.70;1.63;;;;;;;;;;5052625;28;20063;-79
2023/01/12 00:54:27;;;;;;;8.40;1.45;;;;;;;;;;5036445;28;20052;-80
2023/01/12 00:56:54;;;;;;;6.97;1.15;;;;;;;;;;5054720;28;20067;-80
2023/01/12 00:59:20;;;;;;;7.10;1.10;;;;;;;;;;5054599;28;20578;-80
2023/01/12 01:01:47;;;;;;;12.73;1.30;;;;;;;;;;5053996;28;20417;-80
2023/01/12 01:04:13;;;;;;;7.10;1.10;;;;;;;;;;5036179;28;20049;-83
2023/01/12 01:06:40;;;;;;;7.47;1.50;;;;;;;;;;5054358;28;20053;-80
2023/01/12 01:09:06;;;;;;;7.32;1.20;;;;;;;;;;5064402;28;20045;-80
2023/01/12 01:11:33;;;;;;;8.57;1.15;;;;;;;;;;5076062;28;20056;-80
2023/01/12 01:14:00;;;;;;;8.35;1.55;;;;;;;;;;5074200;28;20084;-80
2023/01/12 01:16:28;;;;;;;18.55;1.40;;;;;;;;;;5075505;28;20148;-79
2023/01/12 01:18:55;;;;;;;7.55;1.13;;;;;;;;;;5075202;28;20044;-80
2023/01/12 01:21:21;;;;;;;6.72;1.02;;;;;;;;;;5073976;28;20501;-81
2023/01/12 01:23:48;;;;;;;7.03;1.40;;;;;;;;;;5074703;28;20170;-79
2023/01/12 01:26:16;;;;;;;8.10;1.38;;;;;;;;;;5058893;28;20044;-80
2023/01/12 01:28:43;;;;;;;12.35;1.27;;;;;;;;;;5086081;28;20104;-81
2023/01/12 01:31:11;;;;;;;7.30;1.20;;;;;;;;;;5083464;28;20188;-81
2023/01/12 01:33:38;;;;;;;7.40;1.27;;;;;;;;;;5075661;28;20079;-80
2023/01/12 01:36:04;;;;;;;11.38;1.10;;;;;;;;;;5077736;28;20125;-77
2023/01/12 01:38:31;;;;;;;9.65;0.90;;;;;;;;;;5077025;28;20492;-81
2023/01/12 01:40:58;;;;;;;13.45;1.50;;;;;;;;;;5058065;28;20056;-79
2023/01/12 01:43:26;;;;;;;12.65;1.42;;;;;;;;;;5075285;28;20053;-80
2023/01/12 01:46:04;;;;;;;13.00;1.40;;;;;;;;;;5075980;28;20054;-80
2023/01/12 01:48:32;;;;;;;8.23;1.30;;;;;;;;;;5076826;28;20040;-81
2023/01/12 01:51:02;;;;;;;9.98;1.50;;;;;;;;;;5075073;28;20048;-80
2023/01/12 01:53:30;;;;;;;11.05;1.45;;;;;;;;;;5058641;28;20056;-82
2023/01/12 01:56:09;;;;;;;8.95;1.55;;;;;;;;;;5084386;28;20070;-81
2023/01/12 01:58:35;;;;;;;14.63;1.65;;;;;;;;;;5077357;28;20101;-80
2023/01/12 02:01:02;;;;;;;11.85;1.30;;;;;;;;;;5074860;28;20052;-79
2023/01/12 02:03:29;;;;;;;11.45;1.42;;;;;;;;;;5070736;28;20501;-81
2023/01/12 02:05:59;;;;;;;15.90;1.50;;;;;;;;;;5056327;28;20052;-80
2023/01/12 02:08:30;;;;;;;6.63;1.40;;;;;;;;;;5055974;28;20151;-79
2023/01/12 02:10:59;;;;;;;13.02;1.38;;;;;;;;;;5075320;28;20523;-80
2023/01/12 02:16:21;;;;;;;10.02;1.33;;;;;;;;;;5074002;28;20055;-80
2023/01/12 02:19:04;;;;;;;10.48;1.55;;;;;;;;;;5073924;28;20053;-80
2023/01/12 02:21:39;;;;;;;5.47;1.20;;;;;;;;;;5073809;28;20127;-80
2023/01/12 02:24:24;;;;;;;8.75;1.70;;;;;;;;;;5072780;28;20045;-81
2023/01/12 02:27:14;;;;;;;9.63;1.48;;;;;;;;;;5074594;28;20044;-82
2023/01/12 02:29:47;;;;;;;10.82;1.83;;;;;;;;;;5061759;28;20052;-79
2023/01/12 02:32:16;;;;;;;11.63;1.42;;;;;;;;;;5075022;28;20063;-78
2023/01/12 02:34:51;;;;;;;9.90;1.48;;;;;;;;;;5077154;28;20104;-80
2023/01/12 02:37:18;;;;;;;;;;;;;;;;;;5060685;28;20058;-81
2023/01/12 02:39:51;;;;;;;9.82;1.30;;;;;;;;;;5077839;28;20007;-81
2023/01/12 02:45:08;;;;;;;12.57;1.77;;;;;;;;;;5077268;28;20045;-81
2023/01/12 02:47:34;;;;;;;9.95;1.25;;;;;;;;;;5076749;28;20055;-81
2023/01/12 02:50:02;;;;;;;13.00;1.50;;;;;;;;;;5067094;28;20159;-81
2023/01/12 02:52:30;;;;;;;9.68;1.23;;;;;;;;;;5038403;28;20048;-81
2023/01/12 02:54:57;;;;;;;12.65;1.33;;;;;;;;;;5056569;28;20053;-80
2023/01/12 02:57:25;;;;;;;13.23;1.77;;;;;;;;;;5058730;28;20080;-82
2023/01/12 02:59:53;;;;;;;9.00;1.23;;;;;;;;;;5077036;28;20479;-82
2023/01/12 03:02:21;;;;;;;12.90;1.40;;;;;;;;;;5076368;28;20131;-82
2023/01/12 03:04:47;;;;;;;9.23;1.10;;;;;;;;;;5075766;28;20047;-82
2023/01/12 03:07:14;;;;;;;11.52;1.75;;;;;;;;;;5076712;28;20062;-82
2023/01/12 03:09:42;;;;;;;11.57;1.50;;;;;;;;;;5076272;28;20063;-82
2023/01/12 03:12:13;;;;;;;10.10;1.30;;;;;;;;;;5075676;28;20059;-82
2023/01/12 03:14:47;;;;;;;6.50;0.98;;;;;;;;;;5057755;28;20507;-79
2023/01/12 03:17:23;;;;;;;11.98;1.60;;;;;;;;;;5076139;28;20052;-82
2023/01/12 03:19:50;;;;;;;9.38;1.30;;;;;;;;;;5076792;28;20176;-82
2023/01/12 03:22:16;;;;;;;7.28;1.27;;;;;;;;;;5056838;28;20556;-82
2023/01/12 03:24:45;;;;;;;10.02;1.25;;;;;;;;;;5075553;28;20045;-80
2023/01/12 03:27:16;;;;;;;19.00;1.52;;;;;;;;;;5082391;28;20062;-81
2023/01/12 03:29:49;;;;;;;7.63;1.27;;;;;;;;;;5088341;28;20223;-81
2023/01/12 03:32:16;;;;;;;7.30;1.38;;;;;;;;;;5087307;28;20055;-80
2023/01/12 03:34:44;;;;;;;8.75;1.15;;;;;;;;;;5082942;28;20087;-82
2023/01/12 03:37:14;;;;;;;8.50;1.40;;;;;;;;;;5084042;28;20531;-81
2023/01/12 03:39:58;;;;;;;18.33;1.70;;;;;;;;;;5059043;28;20112;-82
2023/01/12 03:42:25;;;;;;;13.00;1.55;;;;;;;;;;5075066;28;20044;-82
2023/01/12 03:44:54;;;;;;;7.35;1.58;;;;;;;;;;5076165;28;20099;-82
2023/01/12 03:47:23;;;;;;;7.35;1.05;;;;;;;;;;5075978;28;20059;-82
2023/01/12 03:49:54;;;;;;;12.05;1.50;;;;;;;;;;5068118;28;20497;-81
2023/01/12 03:52:22;;;;;;;12.68;1.10;;;;;;;;;;5054416;28;20063;-82
2023/01/12 03:54:50;;;;;;;9.20;1.30;;;;;;;;;;5037318;28;20048;-82
2023/01/12 03:57:16;;;;;;;12.63;2.00;;;;;;;;;;5055351;28;20079;-81
2023/01/12 03:59:43;;;;;;;15.02;1.75;;;;;;;;;;5036888;28;20048;-81
2023/01/12 04:02:12;;;;;;;11.50;1.10;;;;;;;;;;5053813;28;20128;-80
2023/01/12 04:04:41;;;;;;;11.23;1.60;;;;;;;;;;5053613;28;20049;-81
2023/01/12 04:07:08;;;;;;;12.38;1.20;;;;;;;;;;5056222;28;20053;-81
2023/01/12 04:09:34;;;;;;;11.30;1.35;;;;;;;;;;5060280;28;20438;-81
2023/01/12 04:12:10;;;;;;;13.38;1.60;;;;;;;;;;5061165;28;20063;-81
2023/01/12 04:14:38;;;;;;;7.63;1.15;;;;;;;;;;5061000;28;20064;-81
2023/01/12 04:17:04;;;;;;;14.38;1.55;;;;;;;;;;5056796;28;20048;-80
2023/01/12 04:19:31;;;;;;;15.05;1.73;;;;;;;;;;5056798;28;20049;-81
2023/01/12 04:24:42;;;;;;;12.50;1.70;;;;;;;;;;5054101;28;20049;-80
2023/01/12 04:27:09;;;;;;;12.02;1.55;;;;;;;;;;5054414;28;20057;-80
2023/01/12 04:29:35;;;;;;;15.55;1.52;;;;;;;;;;5060968;28;20423;-79
2023/01/12 04:32:03;;;;;;;9.80;1.85;;;;;;;;;;5059165;28;20056;-79
2023/01/12 04:34:29;;;;;;;14.35;1.52;;;;;;;;;;5054896;28;20080;-81
2023/01/12 04:36:55;;;;;;;9.95;1.25;;;;;;;;;;5054833;28;20045;-78
2023/01/12 04:39:22;;;;;;;10.55;1.58;;;;;;;;;;5054393;28;20055;-80
2023/01/12 04:41:48;;;;;;;15.90;1.50;;;;;;;;;;5035853;28;20425;-80
2023/01/12 04:44:15;;;;;;;9.23;1.60;;;;;;;;;;5037440;28;20507;-81
2023/01/12 04:46:41;;;;;;;9.00;1.75;;;;;;;;;;5055777;28;20238;-82
2023/01/12 04:49:08;;;;;;;13.30;1.52;;;;;;;;;;5055196;28;20561;-82
2023/01/12 04:51:34;;;;;;;19.10;1.67;;;;;;;;;;5039500;28;20041;-81
2023/01/12 04:54:00;;;;;;;13.05;1.45;;;;;;;;;;5053109;28;20052;-81
2023/01/12 04:56:27;;;;;;;11.10;1.38;;;;;;;;;;5055380;28;20063;-81
2023/01/12 04:58:54;;;;;;;15.40;1.77;;;;;;;;;;5055251;28;20441;-81
2023/01/12 05:01:21;;;;;;;10.73;1.63;;;;;;;;;;5051516;28;20048;-82
2023/01/12 05:03:48;;;;;;;12.65;1.98;;;;;;;;;;5053210;28;20581;-82
2023/01/12 05:06:14;;;;;;;11.02;1.52;;;;;;;;;;5055334;28;20095;-80
2023/01/12 05:11:27;;;;;;;12.00;1.80;;;;;;;;;;5054316;28;20049;-81
2023/01/12 05:13:54;;;;;;;13.25;1.80;;;;;;;;;;5054004;28;20102;-83
2023/01/12 05:16:20;;;;;;;16.60;1.60;;;;;;;;;;5054582;28;20057;-79
2023/01/12 05:18:47;;;;;;;12.27;1.35;;;;;;;;;;5054860;28;20083;-79
2023/01/12 05:21:15;;;;;;;13.95;1.60;;;;;;;;;;5056902;28;20113;-81
2023/01/12 05:23:41;;;;;;;8.88;1.52;;;;;;;;;;5052126;28;20045;-80
2023/01/12 05:26:08;;;;;;;13.02;1.95;;;;;;;;;;5054091;28;20128;-81
2023/01/12 05:28:35;;;;;;;12.50;1.73;;;;;;;;;;5053237;28;20470;-80
2023/01/12 05:31:06;;;;;;;14.52;1.88;;;;;;;;;;5060442;28;20056;-81
2023/01/12 05:33:32;;;;;;;7.75;1.40;;;;;;;;;;5061903;28;20048;-80
2023/01/12 05:36:02;;;;;;;14.88;1.58;;;;;;;;;;5072946;28;20135;-80
2023/01/12 05:38:28;;;;;;;10.20;1.52;;;;;;;;;;5071513;28;20071;-80
2023/01/12 05:40:57;;;;;;;14.35;1.77;;;;;;;;;;5054531;28;20048;-80
2023/01/12 05:46:08;;;;;;;11.13;1.50;;;;;;;;;;5074171;28;20135;-79
2023/01/12 05:48:35;;;;;;;10.73;1.55;;;;;;;;;;5074979;28;20056;-80
2023/01/12 05:51:02;;;;;;;13.57;1.45;;;;;;;;;;5053728;28;20064;-80
2023/01/12 05:53:28;;;;;;;11.20;1.45;;;;;;;;;;5054590;28;20049;-78
2023/01/12 05:55:55;;;;;;;8.02;1.10;;;;;;;;;;5061434;28;20516;-80
2023/01/12 05:58:21;;;;;;;11.18;1.50;;;;;;;;;;5041010;28;20063;-80
2023/01/12 06:00:48;;;;;;;16.75;1.88;;;;;;;;;;5063180;28;20036;-80
2023/01/12 06:03:14;;;;;;;9.02;1.70;;;;;;;;;;5041069;28;20045;-80
2023/01/12 06:05:41;;;;;;;8.25;1.73;;;;;;;;;;5063494;28;20049;-80
2023/01/12 06:08:08;;;;;;;8.43;1.55;;;;;;;;;;5057747;28;20049;-80
2023/01/12 06:10:35;;;;;;;12.25;1.58;;;;;;;;;;5048114;28;20042;-79
2023/01/12 06:15:47;;;;;;;7.50;1.15;;;;;;;;;;5048528;28;20048;-80
2023/01/12 06:18:16;;;;;;;10.85;1.48;;;;;;;;;;5049249;28;20107;-80
2023/01/12 06:20:42;;;;;;;8.35;1.52;;;;;;;;;;5047215;28;20055;-81
2023/01/12 06:23:08;;;;;;;8.95;1.20;;;;;;;;;;5048844;28;20052;-79
2023/01/12 06:25:35;;;;;;;8.20;1.20;;;;;;;;;;5050139;28;20505;-80
2023/01/12 06:28:03;;;;;;;14.80;1.40;;;;;;;;;;5049899;28;20331;-78
2023/01/12 06:30:30;;;;;;;8.43;1.38;;;;;;;;;;5048169;28;20067;-79
2023/01/12 06:32:59;;;;;;;13.82;1.42;;;;;;;;;;5039215;28;20048;-80
2023/01/12 06:35:26;;;;;;;11.00;1.50;;;;;;;;;;5059251;28;20148;-82
2023/01/12 06:37:56;;;;;;;15.18;2.47;;;;;;;;;;5057578;28;20139;-80
2023/01/12 06:40:23;;;;;;;8.13;1.40;;;;;;;;;;5059978;28;20041;-81
2023/01/12 06:42:49;;;;;;;8.35;1.52;;;;;;;;;;5056669;28;20059;-82
2023/01/12 06:45:16;;;;;;;8.82;1.38;;;;;;;;;;5060397;28;20551;-81
2023/01/12 06:47:46;;;;;;;11.05;1.08;;;;;;;;;;5060594;28;20456;-80
2023/01/12 06:50:12;;;;;;;8.52;1.35;;;;;;;;;;5062169;28;20048;-81
2023/01/12 06:52:39;;;;;;;12.30;1.50;;;;;;;;;;5059618;28;20139;-81
2023/01/12 06:55:05;;;;;;;8.15;1.42;;;;;;;;;;5058542;28;20045;-79
2023/01/12 06:57:31;;;;;;;10.18;1.65;;;;;;;;;;5046557;28;20049;-79
2023/01/12 06:59:58;;;;;;;9.57;1.05;;;;;;;;;;5063773;28;20049;-80
2023/01/12 07:02:24;;;;;;;6.72;1.30;;;;;;;;;;5064367;28;20517;-80
2023/01/12 07:04:51;;;;;;;9.68;1.50;;;;;;;;;;5039382;28;20107;-80
2023/01/12 07:07:17;;;;;;;11.15;1.83;;;;;;;;;;5050225;28;20048;-81
2023/01/12 07:09:43;;;;;;;8.35;1.10;;;;;;;;;;5070997;28;20090;-80
2023/01/12 07:12:10;;;;;;;8.27;1.50;;;;;;;;;;5073726;28;20045;-79
2023/01/12 07:14:36;;;;;;;13.13;1.40;;;;;;;;;;5070051;28;20564;-80
2023/01/12 07:17:03;;;;;;;10.38;1.35;;;;;;;;;;5071000;28;20048;-80
2023/01/12 07:19:29;;;;;;;11.75;1.40;;;;;;;;;;5074500;28;20081;-80
2023/01/12 07:21:55;;;;;;;11.10;1.85;;;;;;;;;;5074223;28;20063;-80
2023/01/12 07:24:22;;;;;;;11.10;1.40;;;;;;;;;;5073828;28;20053;-80
2023/01/12 07:26:52;;;;;;;10.45;1.38;;;;;;;;;;5074163;28;20053;-81
2023/01/12 07:29:19;;;;;;;12.45;1.80;;;;;;;;;;5075780;28;20091;-78
2023/01/12 07:31:47;;;;;;;7.65;1.20;;;;;;;;;;5074534;28;20048;-77
2023/01/12 07:34:14;;;;;;;16.08;1.67;;;;;;;;;;5073926;28;20099;-79
2023/01/12 07:36:41;;;;;;;9.27;1.60;;;;;;;;;;5074176;28;20049;-80
2023/01/12 07:39:09;;;;;;;8.98;1.50;;;;;;;;;;5074363;28;20501;-80
2023/01/12 07:44:21;;;;;;;13.70;1.83;;;;;;;;;;5073514;28;20051;-80
2023/01/12 07:46:47;;;;;;;9.05;1.63;;;;;;;;;;5074120;28;20044;-80
2023/01/12 07:49:13;;;;;;;11.23;1.60;;;;;;;;;;5054031;28;20071;-81
2023/01/12 07:51:40;;;;;;;6.90;1.30;;;;;;;;;;5067517;28;20079;-77
2023/01/12 07:54:06;;;;;;;11.38;1.45;;;;;;;;;;5071765;28;20139;-79
2023/01/12 07:56:33;;;;;;;11.63;1.52;;;;;;;;;;5050891;28;20122;-80
2023/01/12 07:58:59;;;;;;;11.20;1.73;;;;;;;;;;5070496;28;20248;-79
2023/01/12 08:01:26;;;;;;;10.40;1.70;;;;;;;;;;5054500;28;20132;-80
2023/01/12 08:03:52;;;;;;;11.07;1.67;;;;;;;;;;5073216;28;20056;-81
2023/01/12 08:06:19;;;;;;;12.27;1.23;;;;;;;;;;5086140;28;20048;-80
2023/01/12 08:08:45;;;;;;;9.15;1.30;;;;;;;;;;5087743;28;20053;-80
2023/01/12 08:11:11;;;;;;;16.05;1.73;;;;;;;;;;5087717;28;20044;-80
2023/01/12 08:13:39;;;;;;;13.95;1.65;;;;;;;;;;5073667;28;20460;-80
2023/01/12 08:16:10;;;;;;;9.60;1.65;;;;;;;;;;5060419;28;20576;-80
2023/01/12 08:18:39;;;;;;;12.40;1.92;;;;;;;;;;5053405;28;20635;-79
2023/01/12 08:21:08;;;;;;;10.05;1.33;;;;;;;;;;5052472;28;20059;-80
2023/01/12 08:23:37;;;;;;;9.57;1.40;;;;;;;;;;5051524;28;20045;-80
2023/01/12 08:26:11;;;;;;;10.65;1.23;;;;;;;;;;5036254;28;20076;-82
2023/01/12 08:28:42;;;;;;;11.95;1.75;;;;;;;;;;5052786;28;20060;-80
2023/01/12 08:31:09;;;;;;;12.70;1.63;;;;;;;;;;5053388;28;20585;-82
2023/01/12 08:33:36;;;;;;;11.27;1.60;;;;;;;;;;5033636;28;20143;-80
2023/01/12 08:36:03;;;;;;;7.95;1.35;;;;;;;;;;5052616;28;20071;-79
2023/01/12 08:38:30;;;;;;;9.05;1.55;;;;;;;;;;5034528;28;20057;-79
2023/01/12 08:46:30;;;;;;;11.23;1.52;;;;;;;;;;5051706;28;20055;-77
2023/01/12 08:48:56;;;;;;;6.90;1.30;;;;;;;;;;5052368;28;20044;-81
2023/01/12 08:51:23;;;;;;;10.90;1.20;;;;;;;;;;5051891;28;20049;-79
2023/01/12 08:53:49;;;;;;;9.60;1.30;;;;;;;;;;5050311;28;20059;-80
2023/01/12 08:56:16;;;;;;;10.20;1.35;;;;;;;;;;5052597;28;20476;-79
2023/01/12 08:58:42;;;;;;;7.97;1.02;;;;;;;;;;5051858;28;20274;-80
2023/01/12 09:01:10;;;;;;;10.73;1.38;;;;;;;;;;5051613;28;20041;-80
2023/01/12 09:03:37;;;;;;;11.43;1.70;;;;;;;;;;5050304;28;20205;-81
2023/01/12 09:06:14;;;;;;;7.30;1.10;;;;;;;;;;5051590;28;20045;-80
2023/01/12 09:08:44;;;;;;;9.75;1.50;;;;;;;;;;5051265;28;20425;-80
2023/01/12 09:11:11;;;;;;;9.60;1.45;;;;;;;;;;5051805;28;20064;-80
2023/01/12 09:13:37;;;;;;;7.78;1.60;;;;;;;;;;5050437;28;20501;-81
2023/01/12 09:16:05;;;;;;;12.50;1.50;;;;;;;;;;5052170;28;20053;-81
2023/01/12 09:18:38;;;;;;;7.13;1.00;;;;;;;;;;5052001;28;20049;-79
2023/01/12 09:21:09;;;;;;;10.80;2.10;;;;;;;;;;5051154;28;20041;-80
2023/01/12 09:23:35;;;;;;;9.27;1.35;;;;;;;;;;5050119;28;20046;-79
2023/01/12 09:26:03;;;;;;;5.95;1.08;;;;;;;;;;5066399;28;20389;-78
2023/01/12 09:28:30;;;;;;;9.57;1.27;;;;;;;;;;5081787;28;20060;-79
2023/01/12 09:31:00;;;;;;;6.38;1.08;;;;;;;;;;5089958;28;20059;-80
2023/01/12 09:33:27;;;;;;;9.65;1.23;;;;;;;;;;5072539;28;20044;-79
2023/01/12 09:35:58;;;;;;;5.32;1.20;;;;;;;;;;5053403;28;20436;-82
2023/01/12 09:38:25;;;;;;;10.00;1.25;;;;;;;;;;5072497;28;20071;-82
2023/01/12 09:40:51;;;;;;;7.47;1.30;;;;;;;;;;5071408;28;20051;-82
2023/01/12 09:46:57;;;;;;;9.13;1.08;;;;;;;;;;5071569;28;20087;-81
2023/01/12 09:49:05;;;;;;;7.32;1.20;;;;;;;;;;5070292;28;20040;-81
2023/01/12 09:51:34;;;;;;;11.25;1.33;;;;;;;;;;5051452;28;20060;-82
2023/01/12 09:54:00;;;;;;;9.63;1.38;;;;;;;;;;5052131;28;20366;-80
2023/01/12 09:56:27;;;;;;;12.35;1.25;;;;;;;;;;5054716;28;20151;-80
2023/01/12 09:59:01;;;;;;;9.30;1.40;;;;;;;;;;5050518;28;20509;-80
2023/01/12 10:01:27;;;;;;;8.57;1.42;;;;;;;;;;5050711;28;20056;-80
2023/01/12 10:03:57;;;;;;;7.30;1.20;;;;;;;;;;5050089;28;20049;-80
2023/01/12 10:06:23;;;;;;;4.20;0.88;;;;;;;;;;5050822;28;20045;-80
2023/01/12 10:08:53;;;;;;;6.60;1.05;;;;;;;;;;5050666;28;20078;-81
2023/01/12 10:11:38;;;;;;;7.35;1.55;;;;;;;;;;5051029;28;20143;-80
2023/01/12 10:14:13;;;;;;;6.77;1.10;;;;;;;;;;5050613;28;20452;-81
2023/01/12 10:17:05;;;;;;;7.63;1.00;;;;;;;;;;5050832;28;20365;-80
2023/01/12 10:19:32;;;;;;;8.10;1.75;;;;;;;;;;5048184;28;20053;-81
2023/01/12 10:22:02;;;;;;;7.00;0.90;;;;;;;;;;5050725;28;20053;-80
2023/01/12 10:24:29;;;;;;;6.25;1.20;;;;;;;;;;5050836;28;20085;-81
2023/01/12 10:26:58;;;;;;;4.55;0.88;;;;;;;;;;5050762;28;20571;-81
2023/01/12 10:29:25;;;;;;;6.93;1.08;;;;;;;;;;5051441;28;20084;-82
2023/01/12 10:31:52;;;;;;;11.32;1.20;;;;;;;;;;5050985;28;20144;-81
2023/01/12 10:34:18;;;;;;;5.95;1.08;;;;;;;;;;5050463;28;20053;-81
2023/01/12 10:36:48;;;;;;;5.07;0.95;;;;;;;;;;5068540;28;20519;-81
2023/01/12 10:39:23;;;;;;;6.05;1.20;;;;;;;;;;5071419;28;20095;-81
2023/01/12 10:42:07;;;;;;;3.83;1.00;;;;;;;;;;5071200;28;20072;-81
2023/01/12 10:44:33;;;;;;;5.78;0.77;;;;;;;;;;5052861;28;20090;-80
2023/01/12 10:47:09;;;;;;;7.13;0.80;;;;;;;;;;5071395;28;20056;-81
2023/01/12 10:49:37;;;;;;;2.92;0.80;;;;;;;;;;5068531;28;20052;-80
2023/01/12 10:52:08;;;;;;;2.70;0.50;;;;;;;;;;5063150;28;20131;-81
2023/01/12 10:54:40;;;;;;;6.47;0.88;;;;;;;;;;5069697;28;20101;-82
2023/01/12 10:57:20;;;;;;;7.25;1.40;;;;;;;;;;5066476;28;20533;-80
2023/01/12 10:59:55;;;;;;;4.03;0.55;;;;;;;;;;5057513;28;20083;-82
2023/01/12 11:02:24;;;;;;;6.13;0.60;;;;;;;;;;5056095;28;20135;-81
2023/01/12 11:04:51;;;;;;;4.95;0.80;;;;;;;;;;5037926;28;20071;-80
2023/01/12 11:07:25;;;;;;;5.90;1.30;;;;;;;;;;5055507;28;20057;-82
2023/01/12 11:09:53;;;;;;;4.32;0.50;;;;;;;;;;5055172;28;20056;-82
2023/01/12 11:12:26;;;;;;;3.92;0.57;;;;;;;;;;5054664;28;20103;-81
2023/01/12 11:14:55;;;;;;;;;;;;;;;;;;5038454;28;20060;-80
2023/01/12 11:17:51;;;;;;;4.30;0.80;;;;;;;;;;5054667;28;19928;-82
2023/01/12 11:20:17;;;;;;;;;;;;;;;;;;4984040;28;20051;-81
2023/01/12 11:22:44;;;;;;;4.60;0.65;;;;;;;;;;5052707;28;19979;-79
2023/01/12 11:25:19;;;;;;;2.25;0.60;;;;;;;;;;5053307;28;20056;-78
2023/01/12 11:27:47;;;;;;;5.85;0.75;;;;;;;;;;5052882;28;20055;-79
2023/01/12 11:30:24;;;;;;;3.17;0.50;;;;;;;;;;5067593;28;20048;-82
2023/01/12 11:32:57;;;;;;;2.72;0.63;;;;;;;;;;5057690;28;20064;-79
2023/01/12 11:35:24;;;;;;;3.35;0.57;;;;;;;;;;5064642;28;20053;-82
2023/01/12 11:37:52;;;;;;;2.75;0.45;;;;;;;;;;5070167;28;20493;-80
2023/01/12 11:40:27;;;;;;;1.48;0.55;;;;;;;;;;5069339;28;20048;-78
2023/01/12 11:45:44;;;;;;;5.20;0.73;;;;;;;;;;5056992;28;20094;-80
2023/01/12 11:48:15;;;;;;;2.85;0.68;;;;;;;;;;5057551;28;20122;-79
2023/01/12 11:50:43;;;;;;;2.95;0.52;;;;;;;;;;5055063;28;20044;-79
2023/01/12 11:53:17;;;;;;;2.42;0.52;;;;;;;;;;5060688;28;20056;-79
2023/01/12 11:55:44;;;;;;;4.95;0.80;;;;;;;;;;5050737;28;20052;-80
2023/01/12 11:58:10;;;;;;;4.65;1.30;;;;;;;;;;5063797;28;20675;-80
2023/01/12 12:00:55;;;;;;;4.53;0.88;;;;;;;;;;5052371;28;20119;-80
2023/01/12 12:03:47;;;;;;;3.53;0.80;;;;;;;;;;5033765;28;20045;-80
2023/01/12 12:06:23;;;;;;;5.90;0.90;;;;;;;;;;5052469;28;20049;-80
2023/01/12 12:08:49;;;;;;;2.58;0.57;;;;;;;;;;5054113;28;20049;-80
2023/01/12 12:11:16;;;;;;;2.40;0.55;;;;;;;;;;5073061;28;20044;-79
2023/01/12 12:13:57;;;;;;;3.40;0.50;;;;;;;;;;5072306;28;20044;-79
2023/01/12 12:16:41;;;;;;;2.47;0.50;;;;;;;;;;5073490;28;20041;-80
2023/01/12 12:19:29;;;;;;;2.17;0.60;;;;;;;;;;5056306;28;20055;-81
2023/01/12 12:22:18;;;;;;;1.30;0.52;;;;;;;;;;5072748;28;20068;-80
2023/01/12 12:24:50;;;;;;;1.73;0.43;;;;;;;;;;5072544;28;20045;-80
2023/01/12 12:27:35;;;;;;;3.80;0.52;;;;;;;;;;5073717;28;20051;-79
2023/01/12 12:30:24;;;;;;;4.00;0.55;;;;;;;;;;5073206;28;20048;-80
2023/01/12 12:32:50;;;;;;;2.42;0.38;;;;;;;;;;5071599;28;20060;-80
2023/01/12 12:35:24;;;;;;;4.35;0.60;;;;;;;;;;5072072;28;20071;-80
2023/01/12 12:38:09;;;;;;;4.50;0.60;;;;;;;;;;5072936;28;20063;-79
2023/01/12 12:45:15;;;;;;;2.60;0.68;;;;;;;;;;5073100;28;20127;-80
2023/01/12 12:46:14;;;;;;;5.55;0.60;;;;;;;;;;5077146;28;20163;-79
2023/01/12 12:48:58;;;;;;;2.85;0.57;;;;;;;;;;5054229;28;20040;-80
2023/01/12 12:51:25;;;;;;;3.10;0.50;;;;;;;;;;5052206;28;20055;-81
2023/01/12 12:53:53;;;;;;;2.08;0.52;;;;;;;;;;5051699;28;20051;-80
2023/01/12 12:56:20;;;;;;;2.58;0.50;;;;;;;;;;5052393;28;20053;-80
2023/01/12 12:58:48;;;;;;;1.95;0.60;;;;;;;;;;5053145;28;20045;-80
2023/01/12 13:01:29;;;;;;;2.38;0.43;;;;;;;;;;5051967;28;20064;-79
2023/01/12 13:03:57;;;;;;;1.35;0.35;;;;;;;;;;5052742;28;20049;-80
2023/01/12 13:06:26;;;;;;;3.60;0.52;;;;;;;;;;5052989;28;20049;-81
2023/01/12 13:08:53;;;;;;;0.65;0.38;;;;;;;;;;5052867;28;20052;-80
2023/01/12 13:11:40;;;;;;;1.08;0.50;;;;;;;;;;5053948;28;20127;-81
2023/01/12 13:14:16;;;;;;;1.65;0.52;;;;;;;;;;5052448;28;20504;-80
2023/01/12 13:16:47;;;;;;;2.97;0.43;;;;;;;;;;5055958;28;20045;-79
2023/01/12 13:19:30;;;;;;;4.15;0.63;;;;;;;;;;5055780;28;20256;-80
2023/01/12 13:21:58;;;;;;;2.97;0.55;;;;;;;;;;5051522;28;20060;-79
2023/01/12 13:24:36;;;;;;;2.67;0.63;;;;;;;;;;5050977;28;20049;-79
2023/01/12 13:27:23;;;;;;;1.77;0.40;;;;;;;;;;5052018;28;20041;-79
2023/01/12 13:29:49;;;;;;;2.80;0.50;;;;;;;;;;5037387;28;20048;-81
2023/01/12 13:32:32;;;;;;;7.05;0.80;;;;;;;;;;5051333;28;20413;-80
2023/01/12 13:34:58;;;;;;;1.52;0.43;;;;;;;;;;5052206;28;20280;-80
2023/01/12 13:37:27;;;;;;;2.50;0.80;;;;;;;;;;5052523;28;20048;-80
2023/01/12 13:40:02;;;;;;;2.33;0.30;;;;;;;;;;5053376;28;20045;-80
2023/01/12 13:45:17;;;;;;;4.95;0.60;;;;;;;;;;5052579;28;20045;-80
2023/01/12 13:47:45;;;;;;;3.53;0.40;;;;;;;;;;5034633;28;20067;-80
2023/01/12 13:50:14;;;;;;;1.60;0.52;;;;;;;;;;5052081;28;20053;-79
2023/01/12 13:52:41;;;;;;;1.13;0.40;;;;;;;;;;5049851;28;20059;-80
2023/01/12 13:55:18;;;;;;;3.30;0.60;;;;;;;;;;5052118;28;20045;-79
2023/01/12 13:57:54;;;;;;;1.50;0.38;;;;;;;;;;5051428;28;20136;-80
2023/01/12 14:00:22;;;;;;;3.58;0.47;;;;;;;;;;5052218;28;20053;-81
2023/01/12 14:02:49;;;;;;;1.85;0.40;;;;;;;;;;5051573;28;20155;-82
2023/01/12 14:05:19;;;;;;;3.50;0.73;;;;;;;;;;5044272;28;20429;-80
2023/01/12 14:08:10;;;;;;;1.35;0.50;;;;;;;;;;5069217;28;20051;-78
2023/01/12 14:10:41;;;;;;;0.63;0.30;;;;;;;;;;5069601;28;20076;-78
2023/01/12 14:13:26;;;;;;;1.02;0.50;;;;;;;;;;5067963;28;20066;-79
2023/01/12 14:18:46;;;;;;;2.78;0.38;;;;;;;;;;5071202;28;20079;-79
2023/01/12 14:21:20;;;;;;;4.32;0.50;;;;;;;;;;5069719;28;20072;-79
2023/01/12 14:23:46;;;;;;;1.02;0.43;;;;;;;;;;5068995;28;20054;-79
2023/01/12 14:26:15;;;;;;;3.35;0.60;;;;;;;;;;5070311;28;20045;-79
2023/01/12 14:28:45;;;;;;;2.92;0.70;;;;;;;;;;5069767;28;20070;-79
2023/01/12 14:31:17;;;;;;;1.52;0.63;;;;;;;;;;5070496;28;20063;-80
2023/01/12 14:33:48;;;;;;;3.10;0.60;;;;;;;;;;5070172;28;20060;-79
2023/01/12 14:36:41;;;;;;;1.55;0.68;;;;;;;;;;5070354;28;20056;-79
2023/01/12 14:39:09;;;;;;;2.03;0.57;;;;;;;;;;5049886;28;20106;-81
2023/01/12 14:47:07;;;;;;;3.70;0.60;;;;;;;;;;5050188;28;20041;-81
2023/01/12 14:49:37;;;;;;;2.53;0.82;;;;;;;;;;5050664;28;20041;-81
2023/01/12 14:52:15;;;;;;;3.20;0.65;;;;;;;;;;5049661;28;20045;-80
2023/01/12 14:54:42;;;;;;;3.60;0.60;;;;;;;;;;5050161;28;20045;-81
2023/01/12 14:57:18;;;;;;;2.20;0.55;;;;;;;;;;5054925;28;20050;-82
2023/01/12 14:59:45;;;;;;;4.93;0.60;;;;;;;;;;5059271;28;20041;-81
2023/01/12 15:02:12;;;;;;;2.08;0.60;;;;;;;;;;5058326;28;20040;-80
2023/01/12 15:04:57;;;;;;;4.50;0.90;;;;;;;;;;5057146;28;20051;-80
2023/01/12 15:07:25;;;;;;;1.35;0.52;;;;;;;;;;5057390;28;20136;-80
2023/01/12 15:09:56;;;;;;;2.88;0.45;;;;;;;;;;5060817;28;20067;-79
2023/01/12 15:12:23;;;;;;;2.80;0.68;;;;;;;;;;5039416;28;20048;-81
2023/01/12 15:14:49;;;;;;;3.17;0.70;;;;;;;;;;5059197;28;20064;-81
2023/01/12 15:25:36;;;;;;;4.15;0.65;;;;;;;;;;5059673;28;20465;-79
2023/01/12 15:28:05;;;;;;;4.22;1.27;;;;;;;;;;5058287;28;20047;-81
2023/01/12 15:30:34;;;;;;;2.75;0.75;;;;;;;;;;5061496;28;20047;-81
2023/01/12 15:33:01;;;;;;;1.60;0.50;;;;;;;;;;5062342;28;20072;-80
2023/01/12 15:35:28;;;;;;;4.95;0.88;;;;;;;;;;5065241;28;20108;-81
2023/01/12 15:37:56;;;;;;;3.35;0.80;;;;;;;;;;5063581;28;20477;-81
2023/01/12 15:40:23;;;;;;;4.00;0.80;;;;;;;;;;5061623;28;20049;-79
2023/01/12 15:42:50;;;;;;;2.70;0.60;;;;;;;;;;5044412;28;20045;-82
2023/01/12 15:45:37;;;;;;;4.50;0.93;;;;;;;;;;5061087;28;20565;-79
2023/01/12 15:48:04;;;;;;;5.35;0.88;;;;;;;;;;5062154;28;20043;-80
2023/01/12 15:50:31;;;;;;;3.13;0.70;;;;;;;;;;5061564;28;20041;-81
2023/01/12 15:53:00;;;;;;;3.55;0.60;;;;;;;;;;5060006;28;20088;-81